KDCU/DCU METAR and TAF weather

Enter ICAO airport designator
Station Type Date Time Source
KDCU METAR 2021/02/28 03:53 UTC NOAA

KDCU 280353Z AUTO 16010KT 10SM SCT100 18/16 A3007 RMK AO2 SLP179 T01830156


Station Type Date Time Source
KDCU Decoded METAR 2021/02/28 03:53 UTC NOAA

PRYOR FIELD, AL, United States (KDCU) 34-39N 086-57W 176M
Feb 27, 2021 - 10:53 PM EST / 2021.02.28 0353 UTC
Wind: from the SSE (160 degrees) at 12 MPH (10 KT):0
Visibility: 10 mile(s):0
Sky conditions: partly cloudy
Temperature: 64.9 F (18.3 C)
Dew Point: 60.1 F (15.6 C)
Relative Humidity: 84%
Pressure (altimeter): 30.07 in. Hg (1018 hPa)
ob: KDCU 280353Z AUTO 16010KT 10SM SCT100 18/16 A3007 RMK AO2 SLP179 T01830156
cycle: 4

Station Type Date Time Source
KDCU TAF UTC NOAA

Error!

Example: see airport list